sensor_id;sensor_type;location;lat;lon;timestamp;temperature;humidity
18408;DHT22;9330;52.210;21.174;2023-08-24T00:00:19;15.90;99.90
18408;DHT22;9330;52.210;21.174;2023-08-24T00:02:46;15.90;99.90
18408;DHT22;9330;52.210;21.174;2023-08-24T00:05:13;16.00;99.90
18408;DHT22;9330;52.210;21.174;2023-08-24T00:07:40;16.00;99.90
18408;DHT22;9330;52.210;21.174;2023-08-24T00:10:08;16.00;99.90
18408;DHT22;9330;52.210;21.174;2023-08-24T00:12:35;16.00;99.90
18408;DHT22;9330;52.210;21.174;2023-08-24T00:15:02;16.00;99.90
18408;DHT22;9330;52.210;21.174;2023-08-24T00:17:31;16.10;99.90
18408;DHT22;9330;52.210;21.174;2023-08-24T00:19:58;16.10;99.90
18408;DHT22;9330;52.210;21.174;2023-08-24T00:22:24;16.10;99.90
18408;DHT22;9330;52.210;21.174;2023-08-24T00:24:51;16.10;99.90
18408;DHT22;9330;52.210;21.174;2023-08-24T00:27:18;16.10;99.90
18408;DHT22;9330;52.210;21.174;2023-08-24T00:29:45;16.10;99.90
18408;DHT22;9330;52.210;21.174;2023-08-24T00:32:12;16.10;99.90
18408;DHT22;9330;52.210;21.174;2023-08-24T00:38:02;16.10;99.90
18408;DHT22;9330;52.210;21.174;2023-08-24T00:40:29;16.10;99.90
18408;DHT22;9330;52.210;21.174;2023-08-24T00:42:58;16.00;99.90
18408;DHT22;9330;52.210;21.174;2023-08-24T00:45:24;16.00;99.90
18408;DHT22;9330;52.210;21.174;2023-08-24T00:47:51;16.00;99.90
18408;DHT22;9330;52.210;21.174;2023-08-24T00:50:19;15.90;99.90
18408;DHT22;9330;52.210;21.174;2023-08-24T00:52:47;15.90;99.90
18408;DHT22;9330;52.210;21.174;2023-08-24T00:55:17;15.90;99.90
18408;DHT22;9330;52.210;21.174;2023-08-24T00:57:44;15.80;99.90
18408;DHT22;9330;52.210;21.174;2023-08-24T01:00:12;15.80;99.90
18408;DHT22;9330;52.210;21.174;2023-08-24T01:02:39;15.80;99.90
18408;DHT22;9330;52.210;21.174;2023-08-24T01:05:07;15.80;99.90
18408;DHT22;9330;52.210;21.174;2023-08-24T01:07:38;15.70;99.90
18408;DHT22;9330;52.210;21.174;2023-08-24T01:10:07;15.70;99.90
18408;DHT22;9330;52.210;21.174;2023-08-24T01:12:45;15.60;99.90
18408;DHT22;9330;52.210;21.174;2023-08-24T01:15:18;15.70;99.90
18408;DHT22;9330;52.210;21.174;2023-08-24T01:17:47;15.60;99.90
18408;DHT22;9330;52.210;21.174;2023-08-24T01:20:18;15.60;99.90
18408;DHT22;9330;52.210;21.174;2023-08-24T01:22:49;15.60;99.90
18408;DHT22;9330;52.210;21.174;2023-08-24T01:25:24;15.50;99.90
18408;DHT22;9330;52.210;21.174;2023-08-24T01:27:59;15.60;99.90
18408;DHT22;9330;52.210;21.174;2023-08-24T01:30:28;15.50;99.90
18408;DHT22;9330;52.210;21.174;2023-08-24T01:32:56;15.60;99.90
18408;DHT22;9330;52.210;21.174;2023-08-24T01:35:23;15.50;99.90
18408;DHT22;9330;52.210;21.174;2023-08-24T01:37:50;15.50;99.90
18408;DHT22;9330;52.210;21.174;2023-08-24T01:40:22;15.50;99.90
18408;DHT22;9330;52.210;21.174;2023-08-24T01:42:53;15.50;99.90
18408;DHT22;9330;52.210;21.174;2023-08-24T01:45:25;15.50;99.90
18408;DHT22;9330;52.210;21.174;2023-08-24T01:47:55;15.50;99.90
18408;DHT22;9330;52.210;21.174;2023-08-24T01:50:22;15.50;99.90
18408;DHT22;9330;52.210;21.174;2023-08-24T01:52:50;15.50;99.90
18408;DHT22;9330;52.210;21.174;2023-08-24T01:55:18;15.50;99.90
18408;DHT22;9330;52.210;21.174;2023-08-24T01:57:45;15.50;99.90
18408;DHT22;9330;52.210;21.174;2023-08-24T02:00:12;15.50;99.90
18408;DHT22;9330;52.210;21.174;2023-08-24T02:02:43;15.50;99.90
18408;DHT22;9330;52.210;21.174;2023-08-24T02:05:10;15.50;99.90
18408;DHT22;9330;52.210;21.174;2023-08-24T02:07:38;15.50;99.90
18408;DHT22;9330;52.210;21.174;2023-08-24T02:10:06;15.40;99.90
18408;DHT22;9330;52.210;21.174;2023-08-24T02:12:33;15.40;99.90
18408;DHT22;9330;52.210;21.174;2023-08-24T02:15:00;15.50;99.90
18408;DHT22;9330;52.210;21.174;2023-08-24T02:17:27;15.40;99.90
18408;DHT22;9330;52.210;21.174;2023-08-24T02:19:55;15.40;99.90
18408;DHT22;9330;52.210;21.174;2023-08-24T02:22:22;15.30;99.90
18408;DHT22;9330;52.210;21.174;2023-08-24T02:24:48;15.30;99.90
18408;DHT22;9330;52.210;21.174;2023-08-24T02:27:15;15.30;99.90
18408;DHT22;9330;52.210;21.174;2023-08-24T02:29:42;15.30;99.90
18408;DHT22;9330;52.210;21.174;2023-08-24T02:32:09;15.20;99.90
18408;DHT22;9330;52.210;21.174;2023-08-24T02:34:36;15.30;99.90
18408;DHT22;9330;52.210;21.174;2023-08-24T02:37:05;15.20;99.90
18408;DHT22;9330;52.210;21.174;2023-08-24T02:39:31;15.20;99.90
18408;DHT22;9330;52.210;21.174;2023-08-24T02:41:58;15.20;99.90
18408;DHT22;9330;52.210;21.174;2023-08-24T02:44:26;15.10;99.90
18408;DHT22;9330;52.210;21.174;2023-08-24T02:46:54;15.10;99.90
18408;DHT22;9330;52.210;21.174;2023-08-24T02:49:21;15.10;99.90
18408;DHT22;9330;52.210;21.174;2023-08-24T02:51:47;15.10;99.90
18408;DHT22;9330;52.210;21.174;2023-08-24T02:54:16;15.10;99.90
18408;DHT22;9330;52.210;21.174;2023-08-24T02:56:43;15.10;99.90
18408;DHT22;9330;52.210;21.174;2023-08-24T02:59:10;15.00;99.90
18408;DHT22;9330;52.210;21.174;2023-08-24T03:01:36;15.00;99.90
18408;DHT22;9330;52.210;21.174;2023-08-24T03:04:03;15.00;99.90
18408;DHT22;9330;52.210;21.174;2023-08-24T03:06:31;14.90;99.90
18408;DHT22;9330;52.210;21.174;2023-08-24T03:09:00;15.00;99.90
18408;DHT22;9330;52.210;21.174;2023-08-24T03:11:31;15.00;99.90
18408;DHT22;9330;52.210;21.174;2023-08-24T03:13:57;15.00;99.90
18408;DHT22;9330;52.210;21.174;2023-08-24T03:16:24;15.00;99.90
18408;DHT22;9330;52.210;21.174;2023-08-24T03:18:51;15.00;99.90
18408;DHT22;9330;52.210;21.174;2023-08-24T03:21:18;15.00;99.90
18408;DHT22;9330;52.210;21.174;2023-08-24T03:23:45;15.00;99.90
18408;DHT22;9330;52.210;21.174;2023-08-24T03:26:12;14.90;99.90
18408;DHT22;9330;52.210;21.174;2023-08-24T03:28:40;14.90;99.90
18408;DHT22;9330;52.210;21.174;2023-08-24T03:31:07;14.90;99.90
18408;DHT22;9330;52.210;21.174;2023-08-24T03:33:34;14.90;99.90
18408;DHT22;9330;52.210;21.174;2023-08-24T03:36:01;14.90;99.90
18408;DHT22;9330;52.210;21.174;2023-08-24T03:38:28;14.90;99.90
18408;DHT22;9330;52.210;21.174;2023-08-24T03:41:00;14.90;99.90
18408;DHT22;9330;52.210;21.174;2023-08-24T03:43:28;14.90;99.90
18408;DHT22;9330;52.210;21.174;2023-08-24T03:45:56;14.90;99.90
18408;DHT22;9330;52.210;21.174;2023-08-24T03:48:23;14.90;99.90
18408;DHT22;9330;52.210;21.174;2023-08-24T03:50:53;14.90;99.90
18408;DHT22;9330;52.210;21.174;2023-08-24T03:53:20;14.90;99.90
18408;DHT22;9330;52.210;21.174;2023-08-24T03:55:47;14.90;99.90
18408;DHT22;9330;52.210;21.174;2023-08-24T03:58:15;14.80;99.90
18408;DHT22;9330;52.210;21.174;2023-08-24T04:00:42;14.90;99.90
18408;DHT22;9330;52.210;21.174;2023-08-24T04:03:11;14.90;99.90
18408;DHT22;9330;52.210;21.174;2023-08-24T04:05:38;14.80;99.90
18408;DHT22;9330;52.210;21.174;2023-08-24T04:08:05;14.80;99.90
18408;DHT22;9330;52.210;21.174;2023-08-24T04:10:33;14.90;99.90
18408;DHT22;9330;52.210;21.174;2023-08-24T04:13:00;14.90;99.90
18408;DHT22;9330;52.210;21.174;2023-08-24T04:15:27;14.80;99.90
18408;DHT22;9330;52.210;21.174;2023-08-24T04:17:53;14.90;99.90
18408;DHT22;9330;52.210;21.174;2023-08-24T04:20:22;14.90;99.90
18408;DHT22;9330;52.210;21.174;2023-08-24T04:22:49;14.90;99.90
18408;DHT22;9330;52.210;21.174;2023-08-24T04:25:15;15.00;99.90
18408;DHT22;9330;52.210;21.174;2023-08-24T04:27:42;15.00;99.90
18408;DHT22;9330;52.210;21.174;2023-08-24T04:30:10;15.00;99.90
18408;DHT22;9330;52.210;21.174;2023-08-24T04:32:37;15.10;99.90
18408;DHT22;9330;52.210;21.174;2023-08-24T04:35:05;15.10;99.90
18408;DHT22;9330;52.210;21.174;2023-08-24T04:37:33;15.10;99.90
18408;DHT22;9330;52.210;21.174;2023-08-24T04:40:00;15.20;99.90
18408;DHT22;9330;52.210;21.174;2023-08-24T04:42:27;15.30;99.90
18408;DHT22;9330;52.210;21.174;2023-08-24T04:44:53;15.30;99.90
18408;DHT22;9330;52.210;21.174;2023-08-24T04:47:20;15.40;99.90
18408;DHT22;9330;52.210;21.174;2023-08-24T04:49:47;15.40;99.90
18408;DHT22;9330;52.210;21.174;2023-08-24T04:52:14;15.50;99.90
18408;DHT22;9330;52.210;21.174;2023-08-24T04:54:42;15.60;99.90
18408;DHT22;9330;52.210;21.174;2023-08-24T04:57:09;15.60;99.90
18408;DHT22;9330;52.210;21.174;2023-08-24T04:59:35;15.70;99.90
18408;DHT22;9330;52.210;21.174;2023-08-24T05:02:02;15.80;99.90
18408;DHT22;9330;52.210;21.174;2023-08-24T05:04:29;15.90;99.90
18408;DHT22;9330;52.210;21.174;2023-08-24T05:06:56;16.00;99.90
18408;DHT22;9330;52.210;21.174;2023-08-24T05:09:23;16.00;99.90
18408;DHT22;9330;52.210;21.174;2023-08-24T05:11:51;16.10;99.90
18408;DHT22;9330;52.210;21.174;2023-08-24T05:14:17;16.10;99.90
18408;DHT22;9330;52.210;21.174;2023-08-24T05:16:44;16.20;99.90
18408;DHT22;9330;52.210;21.174;2023-08-24T05:19:11;16.30;99.90
18408;DHT22;9330;52.210;21.174;2023-08-24T05:21:38;16.40;99.90
18408;DHT22;9330;52.210;21.174;2023-08-24T05:24:05;16.40;99.90
18408;DHT22;9330;52.210;21.174;2023-08-24T05:26:32;16.50;99.90
18408;DHT22;9330;52.210;21.174;2023-08-24T05:29:00;16.60;99.90
18408;DHT22;9330;52.210;21.174;2023-08-24T05:31:27;16.70;99.90
18408;DHT22;9330;52.210;21.174;2023-08-24T05:33:53;16.90;99.90
18408;DHT22;9330;52.210;21.174;2023-08-24T05:36:20;17.00;99.90
18408;DHT22;9330;52.210;21.174;2023-08-24T05:38:47;17.20;99.90
18408;DHT22;9330;52.210;21.174;2023-08-24T05:41:14;17.30;99.90
18408;DHT22;9330;52.210;21.174;2023-08-24T05:43:41;17.50;99.90
18408;DHT22;9330;52.210;21.174;2023-08-24T05:46:09;17.60;99.90
18408;DHT22;9330;52.210;21.174;2023-08-24T05:48:36;17.80;99.90
18408;DHT22;9330;52.210;21.174;2023-08-24T05:51:03;18.00;99.90
18408;DHT22;9330;52.210;21.174;2023-08-24T05:53:31;18.20;99.90
18408;DHT22;9330;52.210;21.174;2023-08-24T05:55:58;18.40;99.90
18408;DHT22;9330;52.210;21.174;2023-08-24T05:58:25;18.50;99.90
18408;DHT22;9330;52.210;21.174;2023-08-24T06:00:58;18.70;99.90
18408;DHT22;9330;52.210;21.174;2023-08-24T06:03:27;18.90;99.90
18408;DHT22;9330;52.210;21.174;2023-08-24T06:05:53;19.10;99.90
18408;DHT22;9330;52.210;21.174;2023-08-24T06:08:21;19.30;99.90
18408;DHT22;9330;52.210;21.174;2023-08-24T06:10:48;19.50;99.90
18408;DHT22;9330;52.210;21.174;2023-08-24T06:13:15;19.60;99.90
18408;DHT22;9330;52.210;21.174;2023-08-24T06:15:42;19.80;99.90
18408;DHT22;9330;52.210;21.174;2023-08-24T06:18:09;20.00;99.90
18408;DHT22;9330;52.210;21.174;2023-08-24T06:20:37;20.10;99.90
18408;DHT22;9330;52.210;21.174;2023-08-24T06:23:04;20.30;99.90
18408;DHT22;9330;52.210;21.174;2023-08-24T06:25:31;20.60;99.90
18408;DHT22;9330;52.210;21.174;2023-08-24T06:27:58;20.70;99.90
18408;DHT22;9330;52.210;21.174;2023-08-24T06:30:25;20.80;99.90
18408;DHT22;9330;52.210;21.174;2023-08-24T06:32:52;21.00;99.90
18408;DHT22;9330;52.210;21.174;2023-08-24T06:35:18;21.20;99.90
18408;DHT22;9330;52.210;21.174;2023-08-24T06:37:46;21.20;99.90
18408;DHT22;9330;52.210;21.174;2023-08-24T06:40:13;21.50;99.90
18408;DHT22;9330;52.210;21.174;2023-08-24T06:42:40;21.60;99.90
18408;DHT22;9330;52.210;21.174;2023-08-24T06:45:08;21.60;99.90
18408;DHT22;9330;52.210;21.174;2023-08-24T06:47:36;21.80;99.90
18408;DHT22;9330;52.210;21.174;2023-08-24T06:50:03;21.80;99.90
18408;DHT22;9330;52.210;21.174;2023-08-24T06:52:29;21.90;99.90
18408;DHT22;9330;52.210;21.174;2023-08-24T06:54:59;22.10;99.90
18408;DHT22;9330;52.210;21.174;2023-08-24T06:57:26;22.30;99.90
18408;DHT22;9330;52.210;21.174;2023-08-24T06:59:53;22.30;99.90
18408;DHT22;9330;52.210;21.174;2023-08-24T07:02:19;22.50;99.90
18408;DHT22;9330;52.210;21.174;2023-08-24T07:04:46;22.60;99.90
18408;DHT22;9330;52.210;21.174;2023-08-24T07:07:13;22.60;99.90
18408;DHT22;9330;52.210;21.174;2023-08-24T07:09:40;22.90;99.90
18408;DHT22;9330;52.210;21.174;2023-08-24T07:12:09;23.00;99.90
18408;DHT22;9330;52.210;21.174;2023-08-24T07:14:36;23.10;99.90
18408;DHT22;9330;52.210;21.174;2023-08-24T07:17:03;23.20;99.90
18408;DHT22;9330;52.210;21.174;2023-08-24T07:19:30;23.40;99.90
18408;DHT22;9330;52.210;21.174;2023-08-24T07:21:56;23.50;99.90
18408;DHT22;9330;52.210;21.174;2023-08-24T07:24:23;23.60;99.90
18408;DHT22;9330;52.210;21.174;2023-08-24T07:26:52;23.60;99.20
18408;DHT22;9330;52.210;21.174;2023-08-24T07:29:20;23.80;99.90
18408;DHT22;9330;52.210;21.174;2023-08-24T07:31:47;24.10;99.90
18408;DHT22;9330;52.210;21.174;2023-08-24T07:34:14;24.10;99.90
18408;DHT22;9330;52.210;21.174;2023-08-24T07:36:41;24.30;98.70
18408;DHT22;9330;52.210;21.174;2023-08-24T07:39:10;24.20;94.30
18408;DHT22;9330;52.210;21.174;2023-08-24T07:41:37;24.30;94.60
18408;DHT22;9330;52.210;21.174;2023-08-24T07:44:04;24.40;93.80
18408;DHT22;9330;52.210;21.174;2023-08-24T07:46:32;24.30;91.90
18408;DHT22;9330;52.210;21.174;2023-08-24T07:48:59;24.50;95.40
18408;DHT22;9330;52.210;21.174;2023-08-24T07:51:26;24.80;99.90
18408;DHT22;9330;52.210;21.174;2023-08-24T07:53:53;25.00;98.20
18408;DHT22;9330;52.210;21.174;2023-08-24T07:56:20;25.30;95.20
18408;DHT22;9330;52.210;21.174;2023-08-24T07:58:48;25.20;94.20
18408;DHT22;9330;52.210;21.174;2023-08-24T08:01:15;25.20;90.20
18408;DHT22;9330;52.210;21.174;2023-08-24T08:03:43;25.50;99.90
18408;DHT22;9330;52.210;21.174;2023-08-24T08:06:10;25.50;93.80
18408;DHT22;9330;52.210;21.174;2023-08-24T08:08:37;25.50;84.50
18408;DHT22;9330;52.210;21.174;2023-08-24T08:11:04;25.70;91.80
18408;DHT22;9330;52.210;21.174;2023-08-24T08:13:31;25.90;81.30
18408;DHT22;9330;52.210;21.174;2023-08-24T08:16:01;26.10;89.10
18408;DHT22;9330;52.210;21.174;2023-08-24T08:18:28;26.30;83.50
18408;DHT22;9330;52.210;21.174;2023-08-24T08:20:57;26.20;85.20
18408;DHT22;9330;52.210;21.174;2023-08-24T08:23:23;26.10;77.90
18408;DHT22;9330;52.210;21.174;2023-08-24T08:25:50;25.80;73.80
18408;DHT22;9330;52.210;21.174;2023-08-24T08:28:17;25.80;74.30
18408;DHT22;9330;52.210;21.174;2023-08-24T08:30:47;25.90;80.00
18408;DHT22;9330;52.210;21.174;2023-08-24T08:33:14;25.80;72.00
18408;DHT22;9330;52.210;21.174;2023-08-24T08:35:41;26.00;72.50
18408;DHT22;9330;52.210;21.174;2023-08-24T08:38:09;26.10;80.70
18408;DHT22;9330;52.210;21.174;2023-08-24T08:40:37;25.90;71.70
18408;DHT22;9330;52.210;21.174;2023-08-24T08:43:05;26.00;69.30
18408;DHT22;9330;52.210;21.174;2023-08-24T08:45:32;26.10;77.80
18408;DHT22;9330;52.210;21.174;2023-08-24T08:48:00;26.30;82.10
18408;DHT22;9330;52.210;21.174;2023-08-24T08:50:27;26.20;66.10
18408;DHT22;9330;52.210;21.174;2023-08-24T08:52:54;25.90;65.90
18408;DHT22;9330;52.210;21.174;2023-08-24T08:55:25;25.80;68.80
18408;DHT22;9330;52.210;21.174;2023-08-24T08:57:55;25.80;74.90
18408;DHT22;9330;52.210;21.174;2023-08-24T09:00:24;25.70;69.00
18408;DHT22;9330;52.210;21.174;2023-08-24T09:02:52;25.60;68.80
18408;DHT22;9330;52.210;21.174;2023-08-24T09:05:19;25.70;69.50
18408;DHT22;9330;52.210;21.174;2023-08-24T09:07:47;25.60;70.40
18408;DHT22;9330;52.210;21.174;2023-08-24T09:10:14;25.50;73.40
18408;DHT22;9330;52.210;21.174;2023-08-24T09:12:42;25.60;70.20
18408;DHT22;9330;52.210;21.174;2023-08-24T09:15:10;25.50;72.50
18408;DHT22;9330;52.210;21.174;2023-08-24T09:17:42;25.30;71.00
18408;DHT22;9330;52.210;21.174;2023-08-24T09:20:10;25.30;74.70
18408;DHT22;9330;52.210;21.174;2023-08-24T09:22:37;25.10;69.20
18408;DHT22;9330;52.210;21.174;2023-08-24T09:25:09;25.10;74.90
18408;DHT22;9330;52.210;21.174;2023-08-24T09:27:36;25.10;77.90
18408;DHT22;9330;52.210;21.174;2023-08-24T09:30:06;25.10;81.70
18408;DHT22;9330;52.210;21.174;2023-08-24T09:32:33;25.20;76.30
18408;DHT22;9330;52.210;21.174;2023-08-24T09:35:02;25.40;83.00
18408;DHT22;9330;52.210;21.174;2023-08-24T09:37:32;25.50;81.90
18408;DHT22;9330;52.210;21.174;2023-08-24T09:40:02;25.60;77.50
18408;DHT22;9330;52.210;21.174;2023-08-24T09:42:37;25.70;88.80
18408;DHT22;9330;52.210;21.174;2023-08-24T09:45:07;25.80;75.10
18408;DHT22;9330;52.210;21.174;2023-08-24T09:47:35;25.80;74.30
18408;DHT22;9330;52.210;21.174;2023-08-24T09:50:03;25.80;72.60
18408;DHT22;9330;52.210;21.174;2023-08-24T09:52:32;25.90;69.10
18408;DHT22;9330;52.210;21.174;2023-08-24T09:55:02;25.90;69.70
18408;DHT22;9330;52.210;21.174;2023-08-24T09:57:32;26.00;73.00
18408;DHT22;9330;52.210;21.174;2023-08-24T10:00:00;25.90;67.90
18408;DHT22;9330;52.210;21.174;2023-08-24T10:02:36;25.80;71.60
18408;DHT22;9330;52.210;21.174;2023-08-24T10:05:04;25.60;65.80
18408;DHT22;9330;52.210;21.174;2023-08-24T10:07:32;25.50;66.50
18408;DHT22;9330;52.210;21.174;2023-08-24T10:10:02;25.50;67.70
18408;DHT22;9330;52.210;21.174;2023-08-24T10:12:35;25.40;65.50
18408;DHT22;9330;52.210;21.174;2023-08-24T10:15:04;25.30;65.00
18408;DHT22;9330;52.210;21.174;2023-08-24T10:17:34;25.40;68.10
18408;DHT22;9330;52.210;21.174;2023-08-24T10:20:03;25.40;66.80
18408;DHT22;9330;52.210;21.174;2023-08-24T10:22:34;25.50;63.10
18408;DHT22;9330;52.210;21.174;2023-08-24T10:25:01;25.50;63.80
18408;DHT22;9330;52.210;21.174;2023-08-24T10:27:29;25.50;64.90
18408;DHT22;9330;52.210;21.174;2023-08-24T10:29:56;25.60;65.40
18408;DHT22;9330;52.210;21.174;2023-08-24T10:32:25;25.60;64.10
18408;DHT22;9330;52.210;21.174;2023-08-24T10:34:54;25.60;64.80
18408;DHT22;9330;52.210;21.174;2023-08-24T10:37:26;25.70;67.90
18408;DHT22;9330;52.210;21.174;2023-08-24T10:39:53;25.90;63.40
18408;DHT22;9330;52.210;21.174;2023-08-24T10:42:20;26.00;65.30
18408;DHT22;9330;52.210;21.174;2023-08-24T10:44:48;26.10;65.30
18408;DHT22;9330;52.210;21.174;2023-08-24T10:47:17;26.10;66.40
18408;DHT22;9330;52.210;21.174;2023-08-24T10:49:58;26.00;65.90
18408;DHT22;9330;52.210;21.174;2023-08-24T10:52:31;26.00;67.80
18408;DHT22;9330;52.210;21.174;2023-08-24T10:55:00;26.00;72.60
18408;DHT22;9330;52.210;21.174;2023-08-24T10:57:35;26.00;77.40
18408;DHT22;9330;52.210;21.174;2023-08-24T11:00:07;25.90;70.90
18408;DHT22;9330;52.210;21.174;2023-08-24T11:02:42;25.90;69.20
18408;DHT22;9330;52.210;21.174;2023-08-24T11:05:18;26.10;71.90
18408;DHT22;9330;52.210;21.174;2023-08-24T11:07:49;26.10;69.70
18408;DHT22;9330;52.210;21.174;2023-08-24T11:10:17;26.10;66.70
18408;DHT22;9330;52.210;21.174;2023-08-24T11:13:12;26.10;70.70
18408;DHT22;9330;52.210;21.174;2023-08-24T11:15:41;26.10;62.70
18408;DHT22;9330;52.210;21.174;2023-08-24T11:18:29;26.20;65.80
18408;DHT22;9330;52.210;21.174;2023-08-24T11:21:01;26.30;67.20
18408;DHT22;9330;52.210;21.174;2023-08-24T11:23:29;26.30;62.40
18408;DHT22;9330;52.210;21.174;2023-08-24T11:25:57;26.40;66.40
18408;DHT22;9330;52.210;21.174;2023-08-24T11:28:25;26.50;61.90
18408;DHT22;9330;52.210;21.174;2023-08-24T11:30:53;26.50;60.20
18408;DHT22;9330;52.210;21.174;2023-08-24T11:33:30;26.30;61.70
18408;DHT22;9330;52.210;21.174;2023-08-24T11:36:00;26.30;62.80
18408;DHT22;9330;52.210;21.174;2023-08-24T11:38:37;26.40;67.10
18408;DHT22;9330;52.210;21.174;2023-08-24T11:41:10;26.50;64.00
18408;DHT22;9330;52.210;21.174;2023-08-24T11:43:37;26.50;62.70
18408;DHT22;9330;52.210;21.174;2023-08-24T11:46:04;26.70;62.30
18408;DHT22;9330;52.210;21.174;2023-08-24T11:48:31;26.70;59.30
18408;DHT22;9330;52.210;21.174;2023-08-24T11:51:00;26.70;63.60
18408;DHT22;9330;52.210;21.174;2023-08-24T11:53:27;26.70;62.10
18408;DHT22;9330;52.210;21.174;2023-08-24T11:55:57;26.80;61.50
18408;DHT22;9330;52.210;21.174;2023-08-24T11:58:24;27.10;64.80
18408;DHT22;9330;52.210;21.174;2023-08-24T12:00:51;27.20;59.30
18408;DHT22;9330;52.210;21.174;2023-08-24T12:03:18;27.60;63.80
18408;DHT22;9330;52.210;21.174;2023-08-24T12:05:45;27.60;57.50
18408;DHT22;9330;52.210;21.174;2023-08-24T12:08:13;27.60;58.60
18408;DHT22;9330;52.210;21.174;2023-08-24T12:10:43;27.80;61.10
18408;DHT22;9330;52.210;21.174;2023-08-24T12:13:12;27.80;58.70
18408;DHT22;9330;52.210;21.174;2023-08-24T12:15:40;27.80;63.30
18408;DHT22;9330;52.210;21.174;2023-08-24T12:18:08;28.00;58.60
18408;DHT22;9330;52.210;21.174;2023-08-24T12:20:36;28.30;57.50
18408;DHT22;9330;52.210;21.174;2023-08-24T12:23:03;28.60;55.00
18408;DHT22;9330;52.210;21.174;2023-08-24T12:25:36;28.60;52.90
18408;DHT22;9330;52.210;21.174;2023-08-24T12:28:10;29.10;54.00
18408;DHT22;9330;52.210;21.174;2023-08-24T12:30:44;29.30;51.00
18408;DHT22;9330;52.210;21.174;2023-08-24T12:33:21;29.60;53.00
18408;DHT22;9330;52.210;21.174;2023-08-24T12:35:48;30.00;53.50
18408;DHT22;9330;52.210;21.174;2023-08-24T12:38:15;29.80;49.00
18408;DHT22;9330;52.210;21.174;2023-08-24T12:40:43;29.70;52.00
18408;DHT22;9330;52.210;21.174;2023-08-24T12:43:10;30.20;53.30
18408;DHT22;9330;52.210;21.174;2023-08-24T12:45:36;30.30;51.10
18408;DHT22;9330;52.210;21.174;2023-08-24T12:48:04;30.50;51.60
18408;DHT22;9330;52.210;21.174;2023-08-24T12:50:32;30.20;47.60
18408;DHT22;9330;52.210;21.174;2023-08-24T12:52:59;30.00;50.90
18408;DHT22;9330;52.210;21.174;2023-08-24T12:55:26;30.40;47.60
18408;DHT22;9330;52.210;21.174;2023-08-24T12:57:55;30.10;46.40
18408;DHT22;9330;52.210;21.174;2023-08-24T13:00:22;29.60;46.00
18408;DHT22;9330;52.210;21.174;2023-08-24T13:02:49;29.40;51.60
18408;DHT22;9330;52.210;21.174;2023-08-24T13:05:16;29.10;51.30
18408;DHT22;9330;52.210;21.174;2023-08-24T13:07:43;28.80;48.80
18408;DHT22;9330;52.210;21.174;2023-08-24T13:10:10;28.60;47.70
18408;DHT22;9330;52.210;21.174;2023-08-24T13:12:37;28.30;48.10
18408;DHT22;9330;52.210;21.174;2023-08-24T13:15:07;27.90;47.80
18408;DHT22;9330;52.210;21.174;2023-08-24T13:17:34;27.60;49.00
18408;DHT22;9330;52.210;21.174;2023-08-24T13:20:01;27.40;49.20
18408;DHT22;9330;52.210;21.174;2023-08-24T13:22:28;27.20;50.60
18408;DHT22;9330;52.210;21.174;2023-08-24T13:24:55;27.00;53.80
18408;DHT22;9330;52.210;21.174;2023-08-24T13:27:22;26.90;55.40
18408;DHT22;9330;52.210;21.174;2023-08-24T13:29:49;26.60;52.40
18408;DHT22;9330;52.210;21.174;2023-08-24T13:32:17;26.40;50.90
18408;DHT22;9330;52.210;21.174;2023-08-24T13:34:45;26.40;54.40
18408;DHT22;9330;52.210;21.174;2023-08-24T13:37:12;26.30;53.40
18408;DHT22;9330;52.210;21.174;2023-08-24T13:39:38;26.20;56.50
18408;DHT22;9330;52.210;21.174;2023-08-24T13:42:05;26.10;54.20
18408;DHT22;9330;52.210;21.174;2023-08-24T13:44:32;26.00;53.90
18408;DHT22;9330;52.210;21.174;2023-08-24T13:46:59;26.00;54.90
18408;DHT22;9330;52.210;21.174;2023-08-24T13:49:27;25.90;55.60
18408;DHT22;9330;52.210;21.174;2023-08-24T13:51:54;25.90;55.40
18408;DHT22;9330;52.210;21.174;2023-08-24T13:54:20;25.90;61.80
18408;DHT22;9330;52.210;21.174;2023-08-24T13:56:48;25.90;80.40
18408;DHT22;9330;52.210;21.174;2023-08-24T13:59:15;26.00;68.00
18408;DHT22;9330;52.210;21.174;2023-08-24T14:01:42;26.10;63.10
18408;DHT22;9330;52.210;21.174;2023-08-24T14:04:09;26.00;68.30
18408;DHT22;9330;52.210;21.174;2023-08-24T14:06:37;26.00;69.70
18408;DHT22;9330;52.210;21.174;2023-08-24T14:09:04;25.90;69.90
18408;DHT22;9330;52.210;21.174;2023-08-24T14:11:32;26.00;80.30
18408;DHT22;9330;52.210;21.174;2023-08-24T14:13:59;26.10;72.00
18408;DHT22;9330;52.210;21.174;2023-08-24T14:16:26;26.20;67.90
18408;DHT22;9330;52.210;21.174;2023-08-24T14:18:53;26.30;59.90
18408;DHT22;9330;52.210;21.174;2023-08-24T14:21:20;26.50;59.60
18408;DHT22;9330;52.210;21.174;2023-08-24T14:23:50;26.60;61.10
18408;DHT22;9330;52.210;21.174;2023-08-24T14:26:17;26.70;57.30
18408;DHT22;9330;52.210;21.174;2023-08-24T14:28:48;26.80;56.10
18408;DHT22;9330;52.210;21.174;2023-08-24T14:31:15;27.00;56.80
18408;DHT22;9330;52.210;21.174;2023-08-24T14:33:42;27.20;56.60
18408;DHT22;9330;52.210;21.174;2023-08-24T14:36:10;27.20;55.90
18408;DHT22;9330;52.210;21.174;2023-08-24T14:38:38;27.10;54.40
18408;DHT22;9330;52.210;21.174;2023-08-24T14:41:10;27.00;56.40
18408;DHT22;9330;52.210;21.174;2023-08-24T14:43:37;26.80;54.50
18408;DHT22;9330;52.210;21.174;2023-08-24T14:46:04;26.70;54.60
18408;DHT22;9330;52.210;21.174;2023-08-24T14:48:31;26.60;56.90
18408;DHT22;9330;52.210;21.174;2023-08-24T14:50:58;26.40;57.80
18408;DHT22;9330;52.210;21.174;2023-08-24T14:53:26;26.30;57.50
18408;DHT22;9330;52.210;21.174;2023-08-24T14:55:55;26.20;57.70
18408;DHT22;9330;52.210;21.174;2023-08-24T14:58:25;26.20;55.80
18408;DHT22;9330;52.210;21.174;2023-08-24T15:00:54;26.10;55.30
18408;DHT22;9330;52.210;21.174;2023-08-24T15:03:22;26.10;56.90
18408;DHT22;9330;52.210;21.174;2023-08-24T15:05:57;26.10;55.60
18408;DHT22;9330;52.210;21.174;2023-08-24T15:08:24;25.90;55.80
18408;DHT22;9330;52.210;21.174;2023-08-24T15:10:51;26.10;56.30
18408;DHT22;9330;52.210;21.174;2023-08-24T15:13:20;26.00;55.80
18408;DHT22;9330;52.210;21.174;2023-08-24T15:15:48;25.90;57.30
18408;DHT22;9330;52.210;21.174;2023-08-24T15:18:15;25.80;57.80
18408;DHT22;9330;52.210;21.174;2023-08-24T15:20:42;25.60;59.70
18408;DHT22;9330;52.210;21.174;2023-08-24T15:23:08;25.50;61.10
18408;DHT22;9330;52.210;21.174;2023-08-24T15:25:36;25.50;67.10
18408;DHT22;9330;52.210;21.174;2023-08-24T15:28:03;25.40;67.50
18408;DHT22;9330;52.210;21.174;2023-08-24T15:30:30;25.30;68.30
18408;DHT22;9330;52.210;21.174;2023-08-24T15:32:58;25.20;70.20
18408;DHT22;9330;52.210;21.174;2023-08-24T15:35:25;25.20;65.00
18408;DHT22;9330;52.210;21.174;2023-08-24T15:37:52;25.20;62.40